createdAt,value
2022-12-11T00:00:44.585Z,2.33
2022-12-11T00:03:15.620Z,2.33
2022-12-11T00:05:43.713Z,2.33
2022-12-11T00:08:10.864Z,2.34
2022-12-11T00:10:38.141Z,2.33
2022-12-11T00:13:05.046Z,2.31
2022-12-11T00:15:31.563Z,2.33
2022-12-11T00:17:57.909Z,2.33
2022-12-11T00:20:24.727Z,2.31
2022-12-11T00:22:51.169Z,2.27
2022-12-11T00:25:17.719Z,2.26
2022-12-11T00:27:46.712Z,2.27
2022-12-11T00:30:14.787Z,2.29
2022-12-11T00:32:41.157Z,2.31
2022-12-11T00:35:08.228Z,2.33
2022-12-11T00:37:35.201Z,2.33
2022-12-11T00:40:01.636Z,2.35
2022-12-11T00:42:28.091Z,2.34
2022-12-11T00:44:56.260Z,2.36
2022-12-11T00:47:22.710Z,2.36
2022-12-11T00:49:50.162Z,2.36
2022-12-11T00:52:17.978Z,2.36
2022-12-11T00:54:44.983Z,2.35
2022-12-11T00:57:11.489Z,2.35
2022-12-11T00:59:38.430Z,2.36
2022-12-11T01:02:04.802Z,2.35
2022-12-11T01:04:31.340Z,2.36
2022-12-11T01:06:57.734Z,2.37
2022-12-11T01:09:42.620Z,2.36
2022-12-11T01:12:09.138Z,2.36
2022-12-11T01:14:36.123Z,2.36
2022-12-11T01:17:02.623Z,2.37
2022-12-11T01:19:29.179Z,2.36
2022-12-11T01:21:55.765Z,2.39
2022-12-11T01:24:22.435Z,2.38
2022-12-11T01:26:48.876Z,2.36
2022-12-11T01:29:15.231Z,2.35
2022-12-11T01:31:41.737Z,2.36
2022-12-11T01:34:08.081Z,2.35
2022-12-11T01:36:34.641Z,2.35
2022-12-11T01:39:01.007Z,2.36
2022-12-11T01:41:27.368Z,2.36
2022-12-11T01:44:03.917Z,2.35
2022-12-11T01:46:32.949Z,2.37
2022-12-11T01:49:01.838Z,2.38
2022-12-11T01:51:31.129Z,2.38
2022-12-11T01:54:02.498Z,2.38
2022-12-11T01:56:32.744Z,2.35
2022-12-11T01:59:07.098Z,2.30
2022-12-11T02:01:46.012Z,2.29
2022-12-11T02:04:15.857Z,2.30
2022-12-11T02:06:45.474Z,2.31
2022-12-11T02:09:18.459Z,2.33
2022-12-11T02:12:03.127Z,2.34
2022-12-11T02:14:38.463Z,2.34
2022-12-11T02:17:16.775Z,2.32
2022-12-11T02:20:03.923Z,2.27
2022-12-11T02:22:52.475Z,2.27
2022-12-11T02:25:34.746Z,2.24
2022-12-11T02:28:19.974Z,2.25
2022-12-11T02:30:55.172Z,2.27
2022-12-11T02:33:30.823Z,2.28
2022-12-11T02:35:57.751Z,2.28
2022-12-11T02:38:29.980Z,2.27
2022-12-11T02:41:00.470Z,2.27
2022-12-11T02:43:28.780Z,2.27
2022-12-11T02:45:57.330Z,2.26
2022-12-11T02:48:24.343Z,2.25
2022-12-11T02:50:56.063Z,2.25
2022-12-11T02:53:26.180Z,2.25
2022-12-11T02:56:02.516Z,2.27
2022-12-11T02:58:32.737Z,2.25
2022-12-11T03:00:59.330Z,2.27
2022-12-11T03:03:28.168Z,2.27
2022-12-11T03:05:55.239Z,2.25
2022-12-11T03:08:21.698Z,2.25
2022-12-11T03:10:48.092Z,2.24
2022-12-11T03:13:19.782Z,2.22
2022-12-11T03:16:09.975Z,2.22
2022-12-11T03:18:44.078Z,2.22
2022-12-11T03:21:19.803Z,2.22
2022-12-11T03:23:55.248Z,2.21
2022-12-11T03:26:24.233Z,2.21
2022-12-11T03:29:00.696Z,2.21
2022-12-11T03:31:39.215Z,2.19
2022-12-11T03:34:16.401Z,2.18
2022-12-11T03:36:44.735Z,2.18
2022-12-11T03:39:16.988Z,2.17
2022-12-11T03:41:45.813Z,2.17
2022-12-11T03:44:12.886Z,2.16
2022-12-11T03:46:41.070Z,2.15
2022-12-11T03:49:10.883Z,2.11
2022-12-11T03:51:38.037Z,2.14
2022-12-11T03:54:05.294Z,2.16
2022-12-11T03:56:34.193Z,2.17
2022-12-11T03:59:00.615Z,2.19
2022-12-11T04:01:27.468Z,2.19
2022-12-11T04:03:54.139Z,2.18
2022-12-11T04:06:20.620Z,2.19
2022-12-11T04:08:47.058Z,2.17
2022-12-11T04:11:31.929Z,2.18
2022-12-11T04:14:16.904Z,2.18
2022-12-11T04:16:43.326Z,2.19
2022-12-11T04:19:28.664Z,2.19
2022-12-11T04:22:33.200Z,2.19
2022-12-11T04:25:01.002Z,2.18
2022-12-11T04:27:46.103Z,2.18
2022-12-11T04:30:15.460Z,2.18
2022-12-11T04:32:41.845Z,2.19
2022-12-11T04:35:10.255Z,2.18
2022-12-11T04:37:38.144Z,2.18
2022-12-11T04:40:06.970Z,2.19
2022-12-11T04:42:33.487Z,2.19
2022-12-11T04:44:59.915Z,2.17
2022-12-11T04:47:26.369Z,2.17
2022-12-11T04:49:52.824Z,2.18
2022-12-11T04:52:19.394Z,2.18
2022-12-11T04:54:45.890Z,2.18
2022-12-11T04:57:12.285Z,2.16
2022-12-11T04:59:39.011Z,2.17
2022-12-11T05:02:05.658Z,2.15
2022-12-11T05:04:33.775Z,2.16
2022-12-11T05:07:00.838Z,2.16
2022-12-11T05:09:28.349Z,2.17
2022-12-11T05:11:54.767Z,2.16
2022-12-11T05:14:21.635Z,2.15
2022-12-11T05:16:48.298Z,2.14
2022-12-11T05:19:14.794Z,2.13
2022-12-11T05:21:41.171Z,2.13
2022-12-11T05:24:07.861Z,2.14
2022-12-11T05:26:34.217Z,2.09
2022-12-11T05:29:00.842Z,2.04
2022-12-11T05:31:27.674Z,2.00
2022-12-11T05:33:54.525Z,1.98
2022-12-11T05:36:29.076Z,1.97
2022-12-11T05:38:56.941Z,1.94
2022-12-11T05:41:25.433Z,1.93
2022-12-11T05:43:52.187Z,1.93
2022-12-11T05:46:24.305Z,1.91
2022-12-11T05:48:53.731Z,1.86
2022-12-11T05:51:20.886Z,1.84
2022-12-11T05:53:48.777Z,1.85
2022-12-11T05:56:18.362Z,1.83
2022-12-11T05:58:45.978Z,1.81
2022-12-11T06:01:21.963Z,1.79
2022-12-11T06:03:48.506Z,1.78
2022-12-11T06:06:15.972Z,1.76
2022-12-11T06:08:42.396Z,1.73
2022-12-11T06:11:09.171Z,1.68
2022-12-11T06:13:35.546Z,1.63
2022-12-11T06:16:06.594Z,1.59
2022-12-11T06:18:37.890Z,1.58
2022-12-11T06:21:11.445Z,1.56
2022-12-11T06:23:37.817Z,1.55
2022-12-11T06:26:04.508Z,1.53
2022-12-11T06:28:30.851Z,1.51
2022-12-11T06:31:01.539Z,1.50
2022-12-11T06:33:28.232Z,1.49
2022-12-11T06:35:54.692Z,1.47
2022-12-11T06:38:21.202Z,1.45
2022-12-11T06:40:55.464Z,1.40
2022-12-11T06:43:22.354Z,1.38
2022-12-11T06:45:48.769Z,1.34
2022-12-11T06:48:15.340Z,1.34
2022-12-11T06:50:41.756Z,1.33
2022-12-11T06:53:08.099Z,1.32
2022-12-11T06:55:36.067Z,1.28
2022-12-11T06:58:02.859Z,1.22
2022-12-11T07:00:30.629Z,1.18
2022-12-11T07:02:56.980Z,1.14
2022-12-11T07:05:23.698Z,1.07
2022-12-11T07:07:50.150Z,1.06
2022-12-11T07:10:16.723Z,1.06
2022-12-11T07:12:43.158Z,1.05
2022-12-11T07:15:10.360Z,1.03
2022-12-11T07:17:36.946Z,1.01
2022-12-11T07:20:04.429Z,1.00
2022-12-11T07:22:30.957Z,0.98
2022-12-11T07:24:57.325Z,0.98
2022-12-11T07:27:23.799Z,0.96
2022-12-11T07:29:51.039Z,0.95
2022-12-11T07:32:17.619Z,0.94
2022-12-11T07:34:48.582Z,0.93
2022-12-11T07:37:18.323Z,0.91
2022-12-11T07:39:44.858Z,0.87
2022-12-11T07:42:11.406Z,0.85
2022-12-11T07:44:37.966Z,0.85
2022-12-11T07:47:04.486Z,0.85
2022-12-11T07:49:30.945Z,0.84
2022-12-11T07:51:57.356Z,0.86
2022-12-11T07:54:23.694Z,0.87
2022-12-11T07:56:53.731Z,0.89
2022-12-11T07:59:21.079Z,0.90
2022-12-11T08:01:47.901Z,0.91
2022-12-11T08:04:15.631Z,0.93
2022-12-11T08:06:42.723Z,0.95
2022-12-11T08:09:17.499Z,0.96
2022-12-11T08:11:51.678Z,0.96
2022-12-11T08:14:19.440Z,0.95
2022-12-11T08:16:46.062Z,0.95
2022-12-11T08:19:13.216Z,0.96
2022-12-11T08:21:40.284Z,0.98
2022-12-11T08:24:07.793Z,1.01
2022-12-11T08:26:34.154Z,1.01
2022-12-11T08:29:01.899Z,1.01
2022-12-11T08:31:29.383Z,1.03
2022-12-11T08:33:56.881Z,1.04
2022-12-11T08:36:23.241Z,1.05
2022-12-11T08:38:50.631Z,1.06
2022-12-11T08:41:19.945Z,1.10
2022-12-11T08:43:46.784Z,1.11
2022-12-11T08:46:14.099Z,1.12
2022-12-11T08:48:42.227Z,1.15
2022-12-11T08:51:13.761Z,1.17
2022-12-11T08:53:40.291Z,1.21
2022-12-11T08:56:09.586Z,1.21
2022-12-11T08:58:36.261Z,1.22
2022-12-11T09:01:24.433Z,1.26
2022-12-11T09:03:52.846Z,1.28
2022-12-11T09:06:21.538Z,1.30
2022-12-11T09:08:52.538Z,1.33
2022-12-11T09:11:25.788Z,1.36
2022-12-11T09:13:52.427Z,1.38
2022-12-11T09:16:21.836Z,1.38
2022-12-11T09:18:49.987Z,1.39
2022-12-11T09:21:19.683Z,1.44
2022-12-11T09:23:46.348Z,1.45
2022-12-11T09:26:15.781Z,1.46
2022-12-11T09:28:46.326Z,1.48
2022-12-11T09:31:23.484Z,1.51
2022-12-11T09:33:52.069Z,1.54
2022-12-11T09:36:18.596Z,1.56
2022-12-11T09:38:45.326Z,1.60
2022-12-11T09:41:25.739Z,1.61
2022-12-11T09:44:11.010Z,1.65
2022-12-11T09:46:40.636Z,1.68
2022-12-11T09:49:17.666Z,1.72
2022-12-11T09:51:50.026Z,1.76
2022-12-11T09:54:16.400Z,1.79
2022-12-11T09:56:51.297Z,1.82
2022-12-11T09:59:26.798Z,1.89
2022-12-11T10:02:02.085Z,1.94
2022-12-11T10:05:04.076Z,2.00
2022-12-11T10:07:41.071Z,2.11
2022-12-11T10:10:32.700Z,2.52
2022-12-11T10:13:27.426Z,3.32
2022-12-11T10:16:15.506Z,4.08
2022-12-11T10:18:42.242Z,4.60
2022-12-11T10:21:10.759Z,4.99
2022-12-11T10:23:50.766Z,5.26
2022-12-11T10:26:20.770Z,5.17
2022-12-11T10:28:47.828Z,5.07
2022-12-11T10:31:28.562Z,4.96
2022-12-11T10:34:04.144Z,4.70
2022-12-11T10:36:34.367Z,4.40
2022-12-11T10:39:01.543Z,4.10
2022-12-11T10:41:38.996Z,3.84
2022-12-11T10:44:23.670Z,3.65
2022-12-11T10:47:04.590Z,3.53
2022-12-11T10:49:33.771Z,3.41
2022-12-11T10:52:01.931Z,3.31
2022-12-11T10:54:39.729Z,3.36
2022-12-11T10:57:09.652Z,3.37
2022-12-11T10:59:49.286Z,3.26
2022-12-11T11:02:24.786Z,3.30
2022-12-11T11:04:51.782Z,3.33
2022-12-11T11:07:18.078Z,3.23
2022-12-11T11:09:44.659Z,3.10
2022-12-11T11:12:26.344Z,3.07
2022-12-11T11:14:59.891Z,3.05
2022-12-11T11:17:29.576Z,3.07
2022-12-11T11:20:12.071Z,3.29
2022-12-11T11:22:46.859Z,3.73
2022-12-11T11:25:19.767Z,4.18
2022-12-11T11:27:54.687Z,4.43
2022-12-11T11:30:30.214Z,4.61
2022-12-11T11:33:02.221Z,4.59
2022-12-11T11:35:30.700Z,4.34
2022-12-11T11:38:09.239Z,4.12
2022-12-11T11:40:45.553Z,3.94
2022-12-11T11:43:18.018Z,3.85
2022-12-11T11:45:52.545Z,3.85
2022-12-11T11:48:28.852Z,3.92
2022-12-11T11:50:57.884Z,4.12
2022-12-11T11:53:31.729Z,4.81
2022-12-11T11:56:18.402Z,6.35
2022-12-11T11:59:03.197Z,7.29
2022-12-11T12:01:30.260Z,7.18
2022-12-11T12:03:57.114Z,6.88
2022-12-11T12:07:05.547Z,6.47
2022-12-11T12:09:51.768Z,6.08
2022-12-11T12:12:34.148Z,5.78
2022-12-11T12:15:21.720Z,5.57
2022-12-11T12:17:56.199Z,5.47
2022-12-11T12:20:50.758Z,5.49
2022-12-11T12:23:44.703Z,5.49
2022-12-11T12:26:21.243Z,5.50
2022-12-11T12:29:08.654Z,5.46
2022-12-11T12:31:55.676Z,5.44
2022-12-11T12:34:48.373Z,5.40
2022-12-11T12:37:30.151Z,5.29
2022-12-11T12:40:34.104Z,5.37
2022-12-11T12:43:37.920Z,5.55
2022-12-11T12:46:29.299Z,5.61
2022-12-11T12:48:58.854Z,5.53
2022-12-11T12:51:27.166Z,5.42
2022-12-11T12:53:57.166Z,5.28
2022-12-11T12:56:24.780Z,5.17
2022-12-11T12:58:51.565Z,5.03
2022-12-11T13:01:27.282Z,4.91
2022-12-11T13:04:05.675Z,4.80
2022-12-11T13:06:42.183Z,4.72
2022-12-11T13:09:13.587Z,4.69
2022-12-11T13:11:39.957Z,4.66
2022-12-11T13:14:21.690Z,4.61
2022-12-11T13:16:50.437Z,4.52
2022-12-11T13:19:23.752Z,4.38
2022-12-11T13:22:13.174Z,4.29
2022-12-11T13:24:59.624Z,4.21
2022-12-11T13:27:37.711Z,4.13
2022-12-11T13:30:23.193Z,4.04
2022-12-11T13:32:59.935Z,3.99
2022-12-11T13:35:26.943Z,3.94
2022-12-11T13:37:56.724Z,3.91
2022-12-11T13:40:27.508Z,3.89
2022-12-11T13:43:03.850Z,3.89
2022-12-11T13:45:45.099Z,3.90
2022-12-11T13:48:28.576Z,3.88
2022-12-11T13:50:56.797Z,3.86
2022-12-11T13:53:23.830Z,3.84
2022-12-11T13:56:03.965Z,3.73
2022-12-11T13:58:35.033Z,3.58
2022-12-11T14:01:13.269Z,3.43
2022-12-11T14:03:52.972Z,3.31
2022-12-11T14:06:19.613Z,3.24
2022-12-11T14:08:49.327Z,3.20
2022-12-11T14:11:23.729Z,3.18
2022-12-11T14:13:50.467Z,3.14
2022-12-11T14:16:22.964Z,3.09
2022-12-11T14:18:51.666Z,3.07
2022-12-11T14:21:20.911Z,3.05
2022-12-11T14:23:56.193Z,3.03
2022-12-11T14:26:24.450Z,3.02
2022-12-11T14:28:51.383Z,3.00
2022-12-11T14:31:38.838Z,2.99
2022-12-11T14:34:13.690Z,3.00
2022-12-11T14:36:41.815Z,3.02
2022-12-11T14:39:16.650Z,3.02
2022-12-11T14:41:50.402Z,3.03
2022-12-11T14:44:19.863Z,3.03
2022-12-11T14:46:54.537Z,3.05
2022-12-11T14:49:40.236Z,3.05
2022-12-11T14:52:15.042Z,3.05
2022-12-11T14:54:47.288Z,3.02
2022-12-11T14:57:20.306Z,3.00
2022-12-11T14:59:49.306Z,3.00
2022-12-11T15:02:39.774Z,2.98
2022-12-11T15:05:14.688Z,2.97
2022-12-11T15:07:43.636Z,2.96
2022-12-11T15:10:25.065Z,2.95
2022-12-11T15:12:52.116Z,2.95
2022-12-11T15:15:19.329Z,2.94
2022-12-11T15:17:52.537Z,2.94
2022-12-11T15:20:28.331Z,2.94
2022-12-11T15:22:58.937Z,2.95
2022-12-11T15:25:28.038Z,2.95
2022-12-11T15:27:57.855Z,2.93
2022-12-11T15:30:34.390Z,2.94
2022-12-11T15:33:10.271Z,2.94
2022-12-11T15:35:38.908Z,2.94
2022-12-11T15:38:06.109Z,2.94
2022-12-11T15:40:32.640Z,2.94
2022-12-11T15:43:01.953Z,2.94
2022-12-11T15:45:28.912Z,2.93
2022-12-11T15:47:56.027Z,2.92
2022-12-11T15:50:27.642Z,2.92
2022-12-11T15:52:55.176Z,2.92
2022-12-11T15:55:23.743Z,2.92
2022-12-11T15:57:57.956Z,2.91
2022-12-11T16:00:24.801Z,2.93
2022-12-11T16:02:52.012Z,2.93
2022-12-11T16:05:19.622Z,2.92
2022-12-11T16:07:46.197Z,2.94
2022-12-11T16:10:17.846Z,2.96
2022-12-11T16:12:44.782Z,2.97
2022-12-11T16:15:14.454Z,2.96
2022-12-11T16:17:42.774Z,2.94
2022-12-11T16:20:11.417Z,2.91
2022-12-11T16:22:37.866Z,2.89
2022-12-11T16:25:04.600Z,2.88
2022-12-11T16:27:31.122Z,2.88
2022-12-11T16:29:57.563Z,2.90
2022-12-11T16:32:24.007Z,2.91
2022-12-11T16:34:50.419Z,2.90
2022-12-11T16:37:16.964Z,2.91
2022-12-11T16:39:45.876Z,2.90
2022-12-11T16:42:12.308Z,2.88
2022-12-11T16:44:43.866Z,2.86
2022-12-11T16:47:11.589Z,2.87
2022-12-11T16:49:38.057Z,2.89
2022-12-11T16:52:04.596Z,2.89
2022-12-11T16:54:31.169Z,2.88
2022-12-11T16:56:57.503Z,2.88
2022-12-11T16:59:23.968Z,2.91
2022-12-11T17:01:50.587Z,2.91
2022-12-11T17:04:17.178Z,2.92
2022-12-11T17:06:43.596Z,2.91
2022-12-11T17:09:10.955Z,2.92
2022-12-11T17:11:37.550Z,2.91
2022-12-11T17:14:03.935Z,2.90
2022-12-11T17:16:30.422Z,2.91
2022-12-11T17:18:58.841Z,2.93
2022-12-11T17:21:25.207Z,2.96
2022-12-11T17:23:51.771Z,2.94
2022-12-11T17:26:18.798Z,2.94
2022-12-11T17:28:45.391Z,2.94
2022-12-11T17:31:17.899Z,2.94
2022-12-11T17:33:46.264Z,2.94
2022-12-11T17:36:19.401Z,2.94
2022-12-11T17:38:47.971Z,2.94
2022-12-11T17:41:20.473Z,2.96
2022-12-11T17:43:48.577Z,2.98
2022-12-11T17:46:14.973Z,3.00
2022-12-11T17:48:41.453Z,2.98
2022-12-11T17:51:09.571Z,2.94
2022-12-11T17:53:37.183Z,2.87
2022-12-11T17:56:06.685Z,2.82
2022-12-11T17:58:33.826Z,2.78
2022-12-11T18:01:00.679Z,2.74
2022-12-11T18:03:28.140Z,2.72
2022-12-11T18:05:56.848Z,2.71
2022-12-11T18:08:26.113Z,2.72
2022-12-11T18:10:53.874Z,2.74
2022-12-11T18:13:21.893Z,2.77
2022-12-11T18:16:00.516Z,2.76
2022-12-11T18:18:28.030Z,2.77
2022-12-11T18:20:54.531Z,2.79
2022-12-11T18:23:21.101Z,2.80
2022-12-11T18:25:47.742Z,2.81
2022-12-11T18:28:14.292Z,2.81
2022-12-11T18:30:40.653Z,2.83
2022-12-11T18:33:07.146Z,2.84
2022-12-11T18:35:33.506Z,2.85
2022-12-11T18:37:59.894Z,2.88
2022-12-11T18:40:26.361Z,2.89
2022-12-11T18:42:52.716Z,2.91
2022-12-11T18:45:20.081Z,2.92
2022-12-11T18:47:47.166Z,2.91
2022-12-11T18:50:14.239Z,2.94
2022-12-11T18:52:40.592Z,2.93
2022-12-11T18:55:07.390Z,2.94
2022-12-11T18:57:33.765Z,2.93
2022-12-11T19:00:07.084Z,2.92
2022-12-11T19:02:34.595Z,2.92
2022-12-11T19:05:01.067Z,2.92
2022-12-11T19:07:28.596Z,2.92
2022-12-11T19:09:55.035Z,2.92
2022-12-11T19:12:21.513Z,2.92
2022-12-11T19:14:47.902Z,2.93
2022-12-11T19:17:14.486Z,2.94
2022-12-11T19:19:40.977Z,2.94
2022-12-11T19:22:07.571Z,2.93
2022-12-11T19:24:33.945Z,2.93
2022-12-11T19:27:00.338Z,2.93
2022-12-11T19:29:29.153Z,2.96
2022-12-11T19:31:56.366Z,2.96
2022-12-11T19:34:23.112Z,2.94
2022-12-11T19:36:49.843Z,2.95
2022-12-11T19:39:17.043Z,2.95
2022-12-11T19:41:43.789Z,2.94
2022-12-11T19:44:10.448Z,2.94
2022-12-11T19:46:36.908Z,2.93
2022-12-11T19:49:03.864Z,2.95
2022-12-11T19:51:38.250Z,2.95
2022-12-11T19:54:05.961Z,2.95
2022-12-11T19:56:33.471Z,2.94
2022-12-11T19:59:02.949Z,2.94
2022-12-11T20:01:31.667Z,2.97
2022-12-11T20:04:01.285Z,2.98
2022-12-11T20:06:29.895Z,2.96
2022-12-11T20:08:56.504Z,2.94
2022-12-11T20:11:23.115Z,2.92
2022-12-11T20:13:50.473Z,2.92
2022-12-11T20:16:33.375Z,2.88
2022-12-11T20:19:05.955Z,2.82
2022-12-11T20:21:32.404Z,2.78
2022-12-11T20:23:58.775Z,2.77
2022-12-11T20:26:25.373Z,2.75
2022-12-11T20:28:52.488Z,2.75
2022-12-11T20:31:22.743Z,2.75
2022-12-11T20:33:49.917Z,2.76
2022-12-11T20:36:18.366Z,2.78
2022-12-11T20:38:45.130Z,2.78
2022-12-11T20:41:13.753Z,2.79
2022-12-11T20:43:41.034Z,2.76
2022-12-11T20:46:09.654Z,2.73
2022-12-11T20:48:39.276Z,2.74
2022-12-11T20:51:07.531Z,2.78
2022-12-11T20:53:35.508Z,2.79
2022-12-11T20:56:02.793Z,2.80
2022-12-11T20:58:29.266Z,2.82
2022-12-11T21:00:55.847Z,2.81
2022-12-11T21:03:22.309Z,2.79
2022-12-11T21:05:48.788Z,2.76
2022-12-11T21:08:15.304Z,2.74
2022-12-11T21:10:43.594Z,2.75
2022-12-11T21:13:10.453Z,2.78
2022-12-11T21:15:37.997Z,2.78
2022-12-11T21:18:06.271Z,2.80
2022-12-11T21:20:33.673Z,2.81
2022-12-11T21:23:00.120Z,2.81
2022-12-11T21:25:26.601Z,2.81
2022-12-11T21:27:53.036Z,2.84
2022-12-11T21:30:20.506Z,2.85
2022-12-11T21:32:47.448Z,2.87
2022-12-11T21:35:14.181Z,2.86
2022-12-11T21:37:41.860Z,2.87
2022-12-11T21:40:09.817Z,2.89
2022-12-11T21:42:36.276Z,2.91
2022-12-11T21:47:50.518Z,2.90
2022-12-11T21:50:17.894Z,2.87
2022-12-11T21:52:44.933Z,2.85
2022-12-11T21:55:12.343Z,2.85
2022-12-11T21:57:38.910Z,2.86
2022-12-11T22:00:05.874Z,2.87
2022-12-11T22:02:40.998Z,2.89
2022-12-11T22:05:08.473Z,2.91
2022-12-11T22:07:34.957Z,2.91
2022-12-11T22:10:02.443Z,2.91
2022-12-11T22:12:29.173Z,2.91
2022-12-11T22:14:56.119Z,2.88
2022-12-11T22:17:23.098Z,2.86
2022-12-11T22:19:51.825Z,2.87
2022-12-11T22:22:19.167Z,2.88
2022-12-11T22:24:45.989Z,2.88
2022-12-11T22:27:12.408Z,2.89
2022-12-11T22:29:38.784Z,2.88
2022-12-11T22:32:05.141Z,2.87
2022-12-11T22:34:31.789Z,2.86
2022-12-11T22:36:58.368Z,2.85
2022-12-11T22:39:25.018Z,2.86
2022-12-11T22:41:51.583Z,2.86
2022-12-11T22:44:20.436Z,2.86
2022-12-11T22:46:50.301Z,2.86
2022-12-11T22:49:18.610Z,2.85
2022-12-11T22:54:11.829Z,2.84
2022-12-11T22:56:38.513Z,2.85
2022-12-11T22:59:05.015Z,2.85
2022-12-11T23:01:31.739Z,2.87
2022-12-11T23:03:58.124Z,2.87
2022-12-11T23:06:25.113Z,2.88
2022-12-11T23:08:54.889Z,2.87
2022-12-11T23:11:25.780Z,2.89
2022-12-11T23:13:53.075Z,2.89
2022-12-11T23:16:20.972Z,2.88
2022-12-11T23:18:47.349Z,2.89
2022-12-11T23:21:14.271Z,2.89
2022-12-11T23:23:41.228Z,2.89
2022-12-11T23:26:10.175Z,2.88
2022-12-11T23:28:36.861Z,2.88
2022-12-11T23:31:04.048Z,2.85
2022-12-11T23:33:30.590Z,2.82
2022-12-11T23:35:57.771Z,2.78
2022-12-11T23:38:24.202Z,2.75
2022-12-11T23:40:50.875Z,2.73
2022-12-11T23:43:17.354Z,2.72
2022-12-11T23:45:45.286Z,2.72
2022-12-11T23:48:12.706Z,2.75
2022-12-11T23:50:41.263Z,2.75
2022-12-11T23:53:07.850Z,2.77
2022-12-11T23:55:34.352Z,2.79
2022-12-11T23:58:00.769Z,2.79
